sensor_id;sensor_type;location;lat;lon;timestamp;pressure;altitude;pressure_sealevel;temperature;humidity
59443;BME280;45247;47.466;19.004;2023-09-18T00:02:00;100171.94;;;17.89;100.00
59443;BME280;45247;47.466;19.004;2023-09-18T00:04:28;100165.78;;;17.89;100.00
59443;BME280;45247;47.466;19.004;2023-09-18T00:06:57;100166.22;;;17.94;100.00
59443;BME280;45247;47.466;19.004;2023-09-18T00:09:25;100160.88;;;17.94;100.00
59443;BME280;45247;47.466;19.004;2023-09-18T00:11:53;100160.56;;;17.87;100.00
59443;BME280;45247;47.466;19.004;2023-09-18T00:14:23;100155.75;;;17.81;100.00
59443;BME280;45247;47.466;19.004;2023-09-18T00:16:52;100155.88;;;17.80;100.00
59443;BME280;45247;47.466;19.004;2023-09-18T00:19:25;100154.31;;;17.77;100.00
59443;BME280;45247;47.466;19.004;2023-09-18T00:21:53;100160.28;;;17.69;100.00
59443;BME280;45247;47.466;19.004;2023-09-18T00:24:23;100153.97;;;17.70;100.00
59443;BME280;45247;47.466;19.004;2023-09-18T00:26:52;100149.47;;;17.71;100.00
59443;BME280;45247;47.466;19.004;2023-09-18T00:29:20;100155.34;;;17.65;100.00
59443;BME280;45247;47.466;19.004;2023-09-18T00:31:50;100155.00;;;17.58;100.00
59443;BME280;45247;47.466;19.004;2023-09-18T00:34:18;100155.25;;;17.55;100.00
59443;BME280;45247;47.466;19.004;2023-09-18T00:36:47;100150.06;;;17.53;100.00
59443;BME280;45247;47.466;19.004;2023-09-18T00:39:15;100155.66;;;17.50;100.00
59443;BME280;45247;47.466;19.004;2023-09-18T00:41:43;100138.59;;;17.42;100.00
59443;BME280;45247;47.466;19.004;2023-09-18T00:44:16;100147.94;;;17.47;100.00
59443;BME280;45247;47.466;19.004;2023-09-18T00:46:44;100145.63;;;17.43;100.00
59443;BME280;45247;47.466;19.004;2023-09-18T00:49:14;100139.13;;;17.36;100.00
59443;BME280;45247;47.466;19.004;2023-09-18T00:51:43;100141.66;;;17.37;100.00
59443;BME280;45247;47.466;19.004;2023-09-18T00:54:11;100148.97;;;17.35;100.00
59443;BME280;45247;47.466;19.004;2023-09-18T00:56:40;100157.81;;;17.36;100.00
59443;BME280;45247;47.466;19.004;2023-09-18T00:59:08;100152.13;;;17.29;100.00
59443;BME280;45247;47.466;19.004;2023-09-18T01:01:39;100148.84;;;17.25;100.00
59443;BME280;45247;47.466;19.004;2023-09-18T01:04:08;100145.25;;;17.26;100.00
59443;BME280;45247;47.466;19.004;2023-09-18T01:06:38;100144.88;;;17.20;100.00
59443;BME280;45247;47.466;19.004;2023-09-18T01:09:06;100142.59;;;17.15;100.00
59443;BME280;45247;47.466;19.004;2023-09-18T01:11:47;100139.63;;;17.09;100.00
59443;BME280;45247;47.466;19.004;2023-09-18T01:14:24;100147.88;;;17.06;100.00
59443;BME280;45247;47.466;19.004;2023-09-18T01:16:57;100145.59;;;17.01;100.00
59443;BME280;45247;47.466;19.004;2023-09-18T01:19:35;100137.97;;;16.96;100.00
59443;BME280;45247;47.466;19.004;2023-09-18T01:22:06;100123.31;;;16.91;100.00
59443;BME280;45247;47.466;19.004;2023-09-18T01:24:40;100127.53;;;16.93;100.00
59443;BME280;45247;47.466;19.004;2023-09-18T01:27:11;100118.81;;;16.91;100.00
59443;BME280;45247;47.466;19.004;2023-09-18T01:29:41;100131.78;;;16.96;100.00
59443;BME280;45247;47.466;19.004;2023-09-18T01:32:09;100138.22;;;16.93;100.00
59443;BME280;45247;47.466;19.004;2023-09-18T01:34:40;100138.22;;;16.93;100.00
59443;BME280;45247;47.466;19.004;2023-09-18T01:37:13;100139.56;;;16.88;100.00
59443;BME280;45247;47.466;19.004;2023-09-18T01:39:44;100142.09;;;16.89;100.00
59443;BME280;45247;47.466;19.004;2023-09-18T01:42:13;100134.34;;;16.86;100.00
59443;BME280;45247;47.466;19.004;2023-09-18T01:44:42;100138.84;;;16.86;100.00
59443;BME280;45247;47.466;19.004;2023-09-18T01:47:19;100144.75;;;16.89;100.00
59443;BME280;45247;47.466;19.004;2023-09-18T01:49:50;100136.75;;;16.89;100.00
59443;BME280;45247;47.466;19.004;2023-09-18T01:52:18;100133.13;;;16.90;100.00
59443;BME280;45247;47.466;19.004;2023-09-18T01:54:48;100138.91;;;16.95;100.00
59443;BME280;45247;47.466;19.004;2023-09-18T01:57:17;100134.47;;;16.96;100.00
59443;BME280;45247;47.466;19.004;2023-09-18T01:59:45;100129.00;;;16.97;100.00
59443;BME280;45247;47.466;19.004;2023-09-18T02:02:14;100130.69;;;16.98;100.00
59443;BME280;45247;47.466;19.004;2023-09-18T02:05:02;100136.75;;;17.00;100.00
59443;BME280;45247;47.466;19.004;2023-09-18T02:07:35;100138.53;;;17.00;100.00
59443;BME280;45247;47.466;19.004;2023-09-18T02:10:09;100136.75;;;17.00;100.00
59443;BME280;45247;47.466;19.004;2023-09-18T02:12:39;100136.59;;;17.02;100.00
59443;BME280;45247;47.466;19.004;2023-09-18T02:15:08;100142.78;;;17.02;100.00
59443;BME280;45247;47.466;19.004;2023-09-18T02:17:37;100132.13;;;17.02;100.00
59443;BME280;45247;47.466;19.004;2023-09-18T02:20:08;100133.34;;;16.98;100.00
59443;BME280;45247;47.466;19.004;2023-09-18T02:22:38;100133.59;;;16.95;100.00
59443;BME280;45247;47.466;19.004;2023-09-18T02:25:09;100143.53;;;16.93;100.00
59443;BME280;45247;47.466;19.004;2023-09-18T02:27:37;100146.22;;;16.93;100.00
59443;BME280;45247;47.466;19.004;2023-09-18T02:30:07;100141.97;;;16.91;100.00
59443;BME280;45247;47.466;19.004;2023-09-18T02:32:36;100141.13;;;16.90;100.00
59443;BME280;45247;47.466;19.004;2023-09-18T02:35:06;100139.44;;;16.89;100.00
59443;BME280;45247;47.466;19.004;2023-09-18T02:37:35;100147.44;;;16.89;100.00
59443;BME280;45247;47.466;19.004;2023-09-18T02:40:04;100140.41;;;16.88;100.00
59443;BME280;45247;47.466;19.004;2023-09-18T02:42:35;100135.78;;;16.90;100.00
59443;BME280;45247;47.466;19.004;2023-09-18T02:45:04;100152.91;;;16.88;100.00
59443;BME280;45247;47.466;19.004;2023-09-18T02:47:33;100145.97;;;16.85;100.00
59443;BME280;45247;47.466;19.004;2023-09-18T02:50:01;100154.13;;;16.84;100.00
59443;BME280;45247;47.466;19.004;2023-09-18T02:52:31;100155.19;;;16.81;100.00
59443;BME280;45247;47.466;19.004;2023-09-18T02:54:59;100155.19;;;16.81;100.00
59443;BME280;45247;47.466;19.004;2023-09-18T02:57:27;100159.31;;;16.85;100.00
59443;BME280;45247;47.466;19.004;2023-09-18T02:59:57;100156.66;;;16.85;100.00
59443;BME280;45247;47.466;19.004;2023-09-18T03:02:25;100146.22;;;16.82;100.00
59443;BME280;45247;47.466;19.004;2023-09-18T03:04:53;100141.16;;;16.79;100.00
59443;BME280;45247;47.466;19.004;2023-09-18T03:07:22;100145.63;;;16.78;100.00
59443;BME280;45247;47.466;19.004;2023-09-18T03:09:50;100152.06;;;16.76;100.00
59443;BME280;45247;47.466;19.004;2023-09-18T03:12:18;100146.13;;;16.72;100.00
59443;BME280;45247;47.466;19.004;2023-09-18T03:14:46;100143.69;;;16.69;100.00
59443;BME280;45247;47.466;19.004;2023-09-18T03:17:16;100144.78;;;16.67;100.00
59443;BME280;45247;47.466;19.004;2023-09-18T03:19:47;100139.00;;;16.62;100.00
59443;BME280;45247;47.466;19.004;2023-09-18T03:22:15;100144.31;;;16.62;100.00
59443;BME280;45247;47.466;19.004;2023-09-18T03:24:44;100128.34;;;16.62;100.00
59443;BME280;45247;47.466;19.004;2023-09-18T03:27:13;100121.81;;;16.55;100.00
59443;BME280;45247;47.466;19.004;2023-09-18T03:29:41;100134.75;;;16.59;100.00
59443;BME280;45247;47.466;19.004;2023-09-18T03:32:09;100125.19;;;16.57;100.00
59443;BME280;45247;47.466;19.004;2023-09-18T03:34:40;100127.84;;;16.57;100.00
59443;BME280;45247;47.466;19.004;2023-09-18T03:37:09;100132.22;;;16.58;100.00
59443;BME280;45247;47.466;19.004;2023-09-18T03:39:37;100132.22;;;16.58;100.00
59443;BME280;45247;47.466;19.004;2023-09-18T03:42:05;100136.94;;;16.54;100.00
59443;BME280;45247;47.466;19.004;2023-09-18T03:44:34;100139.72;;;16.52;100.00
59443;BME280;45247;47.466;19.004;2023-09-18T03:47:02;100132.00;;;16.49;100.00
59443;BME280;45247;47.466;19.004;2023-09-18T03:49:30;100124.94;;;16.48;100.00
59443;BME280;45247;47.466;19.004;2023-09-18T03:52:00;100129.56;;;16.46;100.00
59443;BME280;45247;47.466;19.004;2023-09-18T03:54:29;100137.69;;;16.45;100.00
59443;BME280;45247;47.466;19.004;2023-09-18T03:56:57;100130.66;;;16.44;100.00
59443;BME280;45247;47.466;19.004;2023-09-18T03:59:25;100142.41;;;16.41;100.00
59443;BME280;45247;47.466;19.004;2023-09-18T04:01:54;100134.66;;;16.38;100.00
59443;BME280;45247;47.466;19.004;2023-09-18T04:04:22;100129.34;;;16.38;100.00
59443;BME280;45247;47.466;19.004;2023-09-18T04:06:50;100117.22;;;16.34;100.00
59443;BME280;45247;47.466;19.004;2023-09-18T04:09:19;100126.19;;;16.33;100.00
59443;BME280;45247;47.466;19.004;2023-09-18T04:11:48;100121.56;;;16.35;100.00
59443;BME280;45247;47.466;19.004;2023-09-18T04:14:16;100125.09;;;16.36;100.00
59443;BME280;45247;47.466;19.004;2023-09-18T04:16:44;100120.88;;;16.33;100.00
59443;BME280;45247;47.466;19.004;2023-09-18T04:19:12;100118.22;;;16.33;100.00
59443;BME280;45247;47.466;19.004;2023-09-18T04:21:41;100114.81;;;16.31;100.00
59443;BME280;45247;47.466;19.004;2023-09-18T04:24:09;100109.59;;;16.30;100.00
59443;BME280;45247;47.466;19.004;2023-09-18T04:26:39;100106.09;;;16.29;100.00
59443;BME280;45247;47.466;19.004;2023-09-18T04:29:08;100102.00;;;16.25;100.00
59443;BME280;45247;47.466;19.004;2023-09-18T04:31:36;100108.75;;;16.29;100.00
59443;BME280;45247;47.466;19.004;2023-09-18T04:34:05;100109.47;;;16.31;100.00
59443;BME280;45247;47.466;19.004;2023-09-18T04:36:33;100108.53;;;16.32;100.00
59443;BME280;45247;47.466;19.004;2023-09-18T04:39:04;100114.44;;;16.36;100.00
59443;BME280;45247;47.466;19.004;2023-09-18T04:41:32;100116.13;;;16.48;100.00
59443;BME280;45247;47.466;19.004;2023-09-18T04:44:02;100116.94;;;16.60;100.00
59443;BME280;45247;47.466;19.004;2023-09-18T04:46:33;100117.41;;;16.65;100.00
59443;BME280;45247;47.466;19.004;2023-09-18T04:49:02;100121.19;;;16.73;100.00
59443;BME280;45247;47.466;19.004;2023-09-18T04:51:31;100123.22;;;16.81;100.00
59443;BME280;45247;47.466;19.004;2023-09-18T04:54:00;100117.66;;;16.84;100.00
59443;BME280;45247;47.466;19.004;2023-09-18T04:56:28;100116.09;;;17.14;100.00
59443;BME280;45247;47.466;19.004;2023-09-18T04:58:56;100110.81;;;17.65;100.00
59443;BME280;45247;47.466;19.004;2023-09-18T05:01:26;100110.63;;;17.57;100.00
59443;BME280;45247;47.466;19.004;2023-09-18T05:03:56;100106.69;;;17.51;100.00
59443;BME280;45247;47.466;19.004;2023-09-18T05:06:25;100112.84;;;17.52;100.00
59443;BME280;45247;47.466;19.004;2023-09-18T05:08:53;100111.88;;;17.53;100.00
59443;BME280;45247;47.466;19.004;2023-09-18T05:11:22;100120.47;;;17.57;100.00
59443;BME280;45247;47.466;19.004;2023-09-18T05:13:50;100109.97;;;17.65;100.00
59443;BME280;45247;47.466;19.004;2023-09-18T05:16:19;100107.19;;;17.87;100.00
59443;BME280;45247;47.466;19.004;2023-09-18T05:18:49;100109.97;;;17.86;100.00
59443;BME280;45247;47.466;19.004;2023-09-18T05:21:18;100103.34;;;17.80;100.00
59443;BME280;45247;47.466;19.004;2023-09-18T05:23:57;100112.78;;;17.84;100.00
59443;BME280;45247;47.466;19.004;2023-09-18T05:26:25;100111.47;;;17.99;100.00
59443;BME280;45247;47.466;19.004;2023-09-18T05:28:55;100118.75;;;17.97;100.00
59443;BME280;45247;47.466;19.004;2023-09-18T05:31:24;100118.78;;;18.07;100.00
59443;BME280;45247;47.466;19.004;2023-09-18T05:33:54;100125.84;;;18.18;100.00
59443;BME280;45247;47.466;19.004;2023-09-18T05:36:22;100122.09;;;18.20;100.00
59443;BME280;45247;47.466;19.004;2023-09-18T05:38:52;100120.13;;;18.22;100.00
59443;BME280;45247;47.466;19.004;2023-09-18T05:41:21;100113.84;;;18.33;100.00
59443;BME280;45247;47.466;19.004;2023-09-18T05:43:53;100111.88;;;18.35;100.00
59443;BME280;45247;47.466;19.004;2023-09-18T05:46:21;100108.34;;;19.14;100.00
59443;BME280;45247;47.466;19.004;2023-09-18T05:48:49;100100.38;;;19.80;100.00
59443;BME280;45247;47.466;19.004;2023-09-18T05:51:20;100108.00;;;20.12;100.00
59443;BME280;45247;47.466;19.004;2023-09-18T05:53:49;100103.66;;;20.39;100.00
59443;BME280;45247;47.466;19.004;2023-09-18T05:56:17;100107.72;;;20.70;100.00
59443;BME280;45247;47.466;19.004;2023-09-18T05:58:45;100104.59;;;21.11;100.00
59443;BME280;45247;47.466;19.004;2023-09-18T06:01:13;100106.97;;;21.14;100.00
59443;BME280;45247;47.466;19.004;2023-09-18T06:03:41;100108.31;;;21.54;100.00
59443;BME280;45247;47.466;19.004;2023-09-18T06:06:10;100098.44;;;21.80;100.00
59443;BME280;45247;47.466;19.004;2023-09-18T06:08:40;100111.34;;;21.77;99.57
59443;BME280;45247;47.466;19.004;2023-09-18T06:11:08;100098.91;;;22.10;97.02
59443;BME280;45247;47.466;19.004;2023-09-18T06:13:36;100100.53;;;22.20;95.63
59443;BME280;45247;47.466;19.004;2023-09-18T06:16:05;100099.28;;;22.49;93.54
59443;BME280;45247;47.466;19.004;2023-09-18T06:18:35;100102.53;;;22.77;88.85
59443;BME280;45247;47.466;19.004;2023-09-18T06:21:05;100100.59;;;23.12;87.18
59443;BME280;45247;47.466;19.004;2023-09-18T06:23:33;100092.88;;;23.01;86.60
59443;BME280;45247;47.466;19.004;2023-09-18T06:26:04;100096.41;;;23.09;84.88
59443;BME280;45247;47.466;19.004;2023-09-18T06:28:32;100097.69;;;22.89;85.87
59443;BME280;45247;47.466;19.004;2023-09-18T06:31:00;100096.50;;;22.83;86.12
59443;BME280;45247;47.466;19.004;2023-09-18T06:33:29;100089.66;;;22.97;85.49
59443;BME280;45247;47.466;19.004;2023-09-18T06:35:57;100094.56;;;23.18;85.43
59443;BME280;45247;47.466;19.004;2023-09-18T06:38:26;100094.34;;;22.95;85.69
59443;BME280;45247;47.466;19.004;2023-09-18T06:40:54;100083.34;;;22.64;85.99
59443;BME280;45247;47.466;19.004;2023-09-18T06:43:24;100092.81;;;22.84;88.25
59443;BME280;45247;47.466;19.004;2023-09-18T06:45:53;100087.09;;;22.87;85.37
59443;BME280;45247;47.466;19.004;2023-09-18T06:48:21;100084.78;;;23.01;87.00
59443;BME280;45247;47.466;19.004;2023-09-18T06:50:49;100094.53;;;23.02;84.08
59443;BME280;45247;47.466;19.004;2023-09-18T06:53:17;100089.16;;;23.10;84.49
59443;BME280;45247;47.466;19.004;2023-09-18T06:55:46;100094.81;;;22.82;83.87
59443;BME280;45247;47.466;19.004;2023-09-18T06:58:14;100088.22;;;22.68;86.55
59443;BME280;45247;47.466;19.004;2023-09-18T07:00:43;100085.47;;;22.44;88.51
59443;BME280;45247;47.466;19.004;2023-09-18T07:03:11;100096.31;;;22.68;87.21
59443;BME280;45247;47.466;19.004;2023-09-18T07:05:40;100091.63;;;22.70;85.82
59443;BME280;45247;47.466;19.004;2023-09-18T07:08:09;100084.34;;;22.55;87.89
59443;BME280;45247;47.466;19.004;2023-09-18T07:10:39;100073.28;;;22.66;86.19
59443;BME280;45247;47.466;19.004;2023-09-18T07:13:08;100079.81;;;22.63;86.34
59443;BME280;45247;47.466;19.004;2023-09-18T07:15:37;100077.00;;;22.81;86.88
59443;BME280;45247;47.466;19.004;2023-09-18T07:18:06;100085.41;;;22.86;84.80
59443;BME280;45247;47.466;19.004;2023-09-18T07:20:36;100086.63;;;23.08;84.27
59443;BME280;45247;47.466;19.004;2023-09-18T07:23:04;100089.50;;;22.98;85.32
59443;BME280;45247;47.466;19.004;2023-09-18T07:25:32;100094.88;;;22.98;85.48
59443;BME280;45247;47.466;19.004;2023-09-18T07:28:01;100087.47;;;22.92;85.84
59443;BME280;45247;47.466;19.004;2023-09-18T07:30:29;100089.16;;;23.10;84.81
59443;BME280;45247;47.466;19.004;2023-09-18T07:32:57;100085.97;;;23.06;84.45
59443;BME280;45247;47.466;19.004;2023-09-18T07:35:27;100083.41;;;22.88;85.46
59443;BME280;45247;47.466;19.004;2023-09-18T07:37:55;100089.09;;;22.77;86.08
59443;BME280;45247;47.466;19.004;2023-09-18T07:40:24;100080.91;;;23.03;85.06
59443;BME280;45247;47.466;19.004;2023-09-18T07:42:53;100074.19;;;23.15;83.91
59443;BME280;45247;47.466;19.004;2023-09-18T07:45:22;100082.09;;;23.33;82.93
59443;BME280;45247;47.466;19.004;2023-09-18T07:47:50;100089.50;;;23.15;83.54
59443;BME280;45247;47.466;19.004;2023-09-18T07:50:19;100079.75;;;23.06;84.84
59443;BME280;45247;47.466;19.004;2023-09-18T07:52:48;100077.41;;;23.27;85.12
59443;BME280;45247;47.466;19.004;2023-09-18T07:55:17;100076.03;;;22.90;85.84
59443;BME280;45247;47.466;19.004;2023-09-18T07:57:45;100070.97;;;23.04;87.01
59443;BME280;45247;47.466;19.004;2023-09-18T08:00:16;100072.50;;;22.90;86.15
59443;BME280;45247;47.466;19.004;2023-09-18T08:02:45;100074.69;;;23.03;86.50
59443;BME280;45247;47.466;19.004;2023-09-18T08:05:16;100065.28;;;23.23;86.12
59443;BME280;45247;47.466;19.004;2023-09-18T08:07:44;100064.59;;;23.21;87.11
59443;BME280;45247;47.466;19.004;2023-09-18T08:10:16;100063.59;;;23.22;86.47
59443;BME280;45247;47.466;19.004;2023-09-18T08:12:44;100061.25;;;23.27;84.76
59443;BME280;45247;47.466;19.004;2023-09-18T08:15:13;100059.88;;;23.39;85.47
59443;BME280;45247;47.466;19.004;2023-09-18T08:17:42;100054.84;;;23.36;85.16
59443;BME280;45247;47.466;19.004;2023-09-18T08:20:11;100053.31;;;23.34;85.49
59443;BME280;45247;47.466;19.004;2023-09-18T08:22:41;100046.94;;;23.18;85.57
59443;BME280;45247;47.466;19.004;2023-09-18T08:25:10;100037.66;;;23.29;86.68
59443;BME280;45247;47.466;19.004;2023-09-18T08:27:41;100039.69;;;23.35;87.99
59443;BME280;45247;47.466;19.004;2023-09-18T08:30:11;100041.56;;;23.35;85.35
59443;BME280;45247;47.466;19.004;2023-09-18T08:32:41;100034.66;;;23.32;85.88
59443;BME280;45247;47.466;19.004;2023-09-18T08:35:10;100032.56;;;23.59;86.42
59443;BME280;45247;47.466;19.004;2023-09-18T08:37:39;100031.19;;;23.87;87.08
59443;BME280;45247;47.466;19.004;2023-09-18T08:40:09;100027.06;;;24.08;86.37
59443;BME280;45247;47.466;19.004;2023-09-18T08:42:41;100030.56;;;24.16;81.74
59443;BME280;45247;47.466;19.004;2023-09-18T08:45:21;100025.03;;;24.41;82.49
59443;BME280;45247;47.466;19.004;2023-09-18T08:47:51;100027.28;;;24.29;79.41
59443;BME280;45247;47.466;19.004;2023-09-18T08:50:20;100027.59;;;24.34;81.15
59443;BME280;45247;47.466;19.004;2023-09-18T08:52:49;100029.19;;;24.52;79.22
59443;BME280;45247;47.466;19.004;2023-09-18T08:55:18;100024.41;;;24.62;79.50
59443;BME280;45247;47.466;19.004;2023-09-18T08:57:49;100028.41;;;24.66;80.33
59443;BME280;45247;47.466;19.004;2023-09-18T09:00:18;100034.66;;;24.66;78.29
59443;BME280;45247;47.466;19.004;2023-09-18T09:02:48;100030.47;;;24.64;77.14
59443;BME280;45247;47.466;19.004;2023-09-18T09:05:21;100034.81;;;24.88;79.66
59443;BME280;45247;47.466;19.004;2023-09-18T09:07:50;100030.88;;;24.98;75.57
59443;BME280;45247;47.466;19.004;2023-09-18T09:10:20;100037.50;;;25.19;75.87
59443;BME280;45247;47.466;19.004;2023-09-18T09:12:52;100033.63;;;25.13;74.96
59443;BME280;45247;47.466;19.004;2023-09-18T09:15:22;100045.97;;;25.08;74.52
59443;BME280;45247;47.466;19.004;2023-09-18T09:17:51;100039.91;;;25.14;73.83
59443;BME280;45247;47.466;19.004;2023-09-18T09:20:20;100043.47;;;25.06;74.93
59443;BME280;45247;47.466;19.004;2023-09-18T09:22:49;100032.59;;;25.37;74.36
59443;BME280;45247;47.466;19.004;2023-09-18T09:25:25;100027.03;;;25.54;75.72
59443;BME280;45247;47.466;19.004;2023-09-18T09:27:55;100027.94;;;25.76;75.45
59443;BME280;45247;47.466;19.004;2023-09-18T09:30:25;100029.28;;;25.94;72.16
59443;BME280;45247;47.466;19.004;2023-09-18T09:32:55;100028.22;;;26.10;72.58
59443;BME280;45247;47.466;19.004;2023-09-18T09:35:25;100028.13;;;26.18;67.20
59443;BME280;45247;47.466;19.004;2023-09-18T09:37:58;100016.88;;;25.85;69.56
59443;BME280;45247;47.466;19.004;2023-09-18T09:40:29;100017.16;;;25.76;68.29
59443;BME280;45247;47.466;19.004;2023-09-18T09:42:59;100017.34;;;25.89;70.19
59443;BME280;45247;47.466;19.004;2023-09-18T09:45:31;100021.81;;;25.96;69.21
59443;BME280;45247;47.466;19.004;2023-09-18T09:48:04;100028.06;;;25.82;68.93
59443;BME280;45247;47.466;19.004;2023-09-18T09:50:33;100013.16;;;25.57;69.89
59443;BME280;45247;47.466;19.004;2023-09-18T09:53:03;100007.38;;;25.89;70.57
59443;BME280;45247;47.466;19.004;2023-09-18T09:55:32;100008.50;;;25.80;69.36
59443;BME280;45247;47.466;19.004;2023-09-18T09:58:04;100000.75;;;25.92;68.75
59443;BME280;45247;47.466;19.004;2023-09-18T10:00:35;99984.53;;;25.62;68.71
59443;BME280;45247;47.466;19.004;2023-09-18T10:03:08;99987.59;;;25.59;68.41
59443;BME280;45247;47.466;19.004;2023-09-18T10:05:42;99986.59;;;25.75;69.25
59443;BME280;45247;47.466;19.004;2023-09-18T10:08:13;99984.16;;;25.95;68.30
59443;BME280;45247;47.466;19.004;2023-09-18T10:10:47;99974.31;;;26.23;68.34
59443;BME280;45247;47.466;19.004;2023-09-18T10:13:18;99980.31;;;26.40;68.06
59443;BME280;45247;47.466;19.004;2023-09-18T10:15:50;99972.84;;;26.42;67.18
59443;BME280;45247;47.466;19.004;2023-09-18T10:18:28;99967.63;;;26.41;67.62
59443;BME280;45247;47.466;19.004;2023-09-18T10:21:06;99968.47;;;26.41;65.29
59443;BME280;45247;47.466;19.004;2023-09-18T10:23:46;99968.31;;;26.64;66.55
59443;BME280;45247;47.466;19.004;2023-09-18T10:26:23;99959.00;;;26.95;65.51
59443;BME280;45247;47.466;19.004;2023-09-18T10:28:58;99951.84;;;26.87;64.08
59443;BME280;45247;47.466;19.004;2023-09-18T10:31:33;99948.16;;;26.95;64.04
59443;BME280;45247;47.466;19.004;2023-09-18T10:34:05;99934.06;;;27.06;64.83
59443;BME280;45247;47.466;19.004;2023-09-18T10:36:34;99936.06;;;26.91;62.87
59443;BME280;45247;47.466;19.004;2023-09-18T10:39:05;99931.00;;;26.60;63.53
59443;BME280;45247;47.466;19.004;2023-09-18T10:41:37;99930.66;;;26.97;64.23
59443;BME280;45247;47.466;19.004;2023-09-18T10:44:07;99930.84;;;26.68;63.21
59443;BME280;45247;47.466;19.004;2023-09-18T10:46:36;99927.41;;;26.53;64.76
59443;BME280;45247;47.466;19.004;2023-09-18T10:49:04;99921.53;;;26.99;65.13
59443;BME280;45247;47.466;19.004;2023-09-18T10:51:33;99914.00;;;26.94;63.92
59443;BME280;45247;47.466;19.004;2023-09-18T10:54:01;99907.41;;;27.03;62.72
59443;BME280;45247;47.466;19.004;2023-09-18T10:56:30;99925.31;;;27.04;62.23
59443;BME280;45247;47.466;19.004;2023-09-18T10:59:00;99919.66;;;26.99;61.72
59443;BME280;45247;47.466;19.004;2023-09-18T11:01:31;99909.31;;;27.37;63.75
59443;BME280;45247;47.466;19.004;2023-09-18T11:04:00;99905.22;;;27.55;62.01
59443;BME280;45247;47.466;19.004;2023-09-18T11:06:29;99904.19;;;27.56;61.29
59443;BME280;45247;47.466;19.004;2023-09-18T11:09:03;99917.50;;;27.51;62.13
59443;BME280;45247;47.466;19.004;2023-09-18T11:11:34;99908.91;;;27.40;61.12
59443;BME280;45247;47.466;19.004;2023-09-18T11:14:02;99893.28;;;27.42;61.12
